Time;durP1;ratioP1;P1;durP2;ratioP2;P2;SDS_P1;SDS_P2;PMS_P1;PMS_P2;Temp;Humidity;BMP_temperature;BMP_pressure;BME280_temperature;BME280_humidity;BME280_pressure;Samples;Min_cycle;Max_cycle;Signal;HPM_P1;HPM_P2
2021/11/27 00:01:36;;;;;;;19.80;7.47;;;1.60;97.30;;;;;;5055962;28;20595;-82
2021/11/27 00:04:02;;;;;;;25.80;8.03;;;1.50;97.30;;;;;;5056416;28;20424;-82
2021/11/27 00:06:28;;;;;;;26.20;9.13;;;1.50;97.30;;;;;;5055908;28;20465;-81
2021/11/27 00:08:53;;;;;;;21.83;8.10;;;1.50;97.30;;;;;;5055649;28;20780;-81
2021/11/27 00:11:20;;;;;;;18.87;6.93;;;1.50;97.30;;;;;;5055134;28;20414;-81
2021/11/27 00:13:46;;;;;;;23.03;9.20;;;1.50;97.30;;;;;;5055980;28;20183;-81
2021/11/27 00:16:11;;;;;;;26.13;8.03;;;1.50;97.30;;;;;;5055359;28;20801;-81
2021/11/27 00:18:37;;;;;;;27.07;8.50;;;1.50;97.30;;;;;;5055931;28;20261;-80
2021/11/27 00:21:07;;;;;;;26.70;8.60;;;1.50;97.30;;;;;;5056648;28;20739;-81
2021/11/27 00:23:34;;;;;;;28.37;9.47;;;1.50;97.30;;;;;;5042487;28;20223;-82
2021/11/27 00:26:01;;;;;;;20.40;8.07;;;1.50;97.30;;;;;;5036496;28;20473;-81
2021/11/27 00:28:28;;;;;;;19.33;7.20;;;1.50;97.30;;;;;;5041415;28;20406;-81
2021/11/27 00:30:57;;;;;;;24.57;8.60;;;1.40;97.30;;;;;;5049799;28;20411;-80
2021/11/27 00:33:23;;;;;;;30.00;9.13;;;1.40;97.30;;;;;;5041980;28;20486;-82
2021/11/27 00:35:49;;;;;;;23.47;8.67;;;1.40;97.30;;;;;;5045316;28;20434;-81
2021/11/27 00:38:16;;;;;;;29.07;8.37;;;1.40;97.30;;;;;;5043265;28;21067;-81
2021/11/27 00:40:43;;;;;;;20.60;8.07;;;1.40;97.30;;;;;;5044799;28;20422;-81
2021/11/27 00:43:10;;;;;;;26.40;9.50;;;1.40;97.30;;;;;;5037501;28;20893;-84
2021/11/27 00:45:37;;;;;;;19.60;8.03;;;1.40;97.30;;;;;;5044624;28;20459;-82
2021/11/27 00:48:04;;;;;;;26.10;8.67;;;1.40;97.30;;;;;;5042224;28;20461;-82
2021/11/27 00:50:34;;;;;;;24.77;8.83;;;1.40;97.30;;;;;;5049942;28;21223;-82
2021/11/27 00:53:03;;;;;;;24.30;8.53;;;1.40;97.30;;;;;;5044549;28;20402;-83
2021/11/27 00:55:31;;;;;;;21.73;7.90;;;1.40;97.30;;;;;;5044732;28;20431;-82
2021/11/27 00:57:56;;;;;;;27.77;8.80;;;1.40;97.30;;;;;;5038633;28;20866;-82
2021/11/27 01:00:31;;;;;;;24.20;8.80;;;1.40;97.30;;;;;;5035930;28;20419;-81
2021/11/27 01:03:02;;;;;;;28.20;9.40;;;1.40;97.30;;;;;;5042206;28;20793;-82
2021/11/27 01:05:30;;;;;;;24.33;9.53;;;1.40;97.30;;;;;;5055172;28;20472;-82
2021/11/27 01:07:56;;;;;;;28.50;10.47;;;1.40;97.30;;;;;;5055076;28;20987;-82
2021/11/27 01:10:24;;;;;;;23.57;7.70;;;1.50;97.30;;;;;;5055303;28;20442;-83
2021/11/27 01:12:51;;;;;;;25.03;7.83;;;1.50;97.30;;;;;;5055054;28;20206;-83
2021/11/27 01:15:21;;;;;;;21.73;8.33;;;1.50;97.30;;;;;;5055189;28;20808;-83
2021/11/27 01:17:47;;;;;;;17.10;7.07;;;1.50;97.30;;;;;;5055313;28;20813;-83
2021/11/27 01:20:16;;;;;;;24.33;8.43;;;1.50;97.30;;;;;;5056470;28;20512;-83
2021/11/27 01:22:42;;;;;;;24.33;8.10;;;1.50;97.30;;;;;;5054946;28;20470;-83
2021/11/27 01:25:08;;;;;;;26.83;9.00;;;1.50;97.30;;;;;;5055122;28;20479;-82
2021/11/27 01:27:34;;;;;;;27.83;9.10;;;1.60;97.30;;;;;;5056466;28;20175;-82
2021/11/27 01:30:01;;;;;;;23.80;7.60;;;1.60;97.30;;;;;;5056533;28;20789;-82
2021/11/27 01:32:26;;;;;;;24.17;7.93;;;1.60;97.30;;;;;;5055048;28;20509;-81
2021/11/27 01:34:52;;;;;;;25.73;8.33;;;1.50;97.30;;;;;;5056989;28;20445;-82
2021/11/27 01:37:18;;;;;;;25.50;8.20;;;1.50;97.30;;;;;;5055066;28;20281;-83
2021/11/27 01:39:44;;;;;;;23.00;6.97;;;1.50;97.30;;;;;;5054978;28;20529;-82
2021/11/27 01:42:11;;;;;;;26.57;9.97;;;1.50;97.30;;;;;;5054999;28;20192;-82
2021/11/27 01:44:38;;;;;;;21.17;7.40;;;1.40;97.30;;;;;;5054922;28;20796;-82
2021/11/27 01:47:04;;;;;;;25.30;9.67;;;1.40;97.30;;;;;;5054639;28;20433;-82
2021/11/27 01:49:30;;;;;;;23.57;8.33;;;1.50;97.30;;;;;;5055957;28;20420;-82
2021/11/27 01:51:56;;;;;;;18.50;8.77;;;1.50;97.30;;;;;;5054734;28;20498;-82
2021/11/27 01:54:22;;;;;;;27.07;10.40;;;1.50;97.30;;;;;;5055114;28;20176;-81
2021/11/27 01:56:55;;;;;;;17.50;7.20;;;1.50;97.30;;;;;;5058084;28;20244;-81
2021/11/27 01:59:21;;;;;;;22.70;8.60;;;1.60;97.30;;;;;;5058729;28;20412;-81
2021/11/27 02:01:47;;;;;;;22.07;7.53;;;1.60;97.30;;;;;;5059101;28;20484;-82
2021/11/27 02:04:13;;;;;;;19.90;7.27;;;1.60;97.30;;;;;;5058492;28;20410;-82
2021/11/27 02:06:41;;;;;;;21.00;7.73;;;1.60;97.30;;;;;;5058084;28;20511;-83
2021/11/27 02:09:22;;;;;;;21.60;8.27;;;1.60;97.30;;;;;;5058890;28;20266;-82
2021/11/27 02:11:49;;;;;;;16.80;7.30;;;1.70;97.30;;;;;;5058226;28;20410;-82
2021/11/27 02:14:15;;;;;;;18.30;7.60;;;1.70;97.30;;;;;;5059509;28;20421;-81
2021/11/27 02:16:41;;;;;;;17.67;6.93;;;1.70;97.30;;;;;;5058217;28;21038;-82
2021/11/27 02:19:08;;;;;;;23.20;7.83;;;1.70;97.30;;;;;;5058465;28;20465;-82
2021/11/27 02:21:34;;;;;;;20.80;7.60;;;1.70;97.30;;;;;;5058506;28;21169;-82
2021/11/27 02:24:00;;;;;;;21.03;7.80;;;1.70;97.30;;;;;;5057907;28;20470;-82
2021/11/27 02:26:31;;;;;;;24.63;8.60;;;1.70;97.30;;;;;;5058413;28;21003;-81
2021/11/27 02:29:01;;;;;;;18.30;7.80;;;1.70;97.30;;;;;;5059487;28;20387;-81
2021/11/27 02:31:27;;;;;;;23.37;8.50;;;1.80;97.30;;;;;;5058713;28;20514;-82
2021/11/27 02:33:55;;;;;;;25.50;7.80;;;1.80;97.30;;;;;;5058432;28;20420;-82
2021/11/27 02:36:21;;;;;;;23.40;7.13;;;1.80;97.30;;;;;;5057949;28;20438;-82
2021/11/27 02:38:48;;;;;;;22.20;7.77;;;1.90;97.30;;;;;;5058217;28;20415;-81
2021/11/27 02:41:14;;;;;;;19.90;7.93;;;1.90;97.30;;;;;;5058586;28;20544;-81
2021/11/27 02:43:40;;;;;;;22.50;8.10;;;1.90;97.30;;;;;;5058419;28;21072;-82
2021/11/27 02:46:05;;;;;;;18.03;6.70;;;1.90;97.30;;;;;;5059890;28;20458;-81
2021/11/27 02:48:31;;;;;;;22.07;7.77;;;1.90;97.30;;;;;;5058792;28;20443;-81
2021/11/27 02:50:57;;;;;;;23.00;7.70;;;1.90;97.30;;;;;;5059320;28;20227;-81
2021/11/27 02:53:23;;;;;;;28.77;7.70;;;1.80;97.30;;;;;;5059022;28;20203;-81
2021/11/27 02:55:48;;;;;;;17.87;7.70;;;1.80;97.30;;;;;;5058757;28;20273;-81
2021/11/27 02:58:15;;;;;;;23.73;7.20;;;1.80;97.30;;;;;;5058990;28;20438;-81
2021/11/27 03:00:41;;;;;;;14.37;6.77;;;1.80;97.30;;;;;;5058580;28;20199;-82
2021/11/27 03:03:06;;;;;;;17.80;6.33;;;1.80;97.30;;;;;;5058798;28;20434;-82
2021/11/27 03:05:32;;;;;;;18.47;6.33;;;1.80;97.30;;;;;;5059193;28;21110;-82
2021/11/27 03:07:58;;;;;;;20.93;7.83;;;1.80;97.30;;;;;;5058702;28;20356;-82
2021/11/27 03:10:24;;;;;;;17.40;6.67;;;1.80;97.30;;;;;;5059426;28;20433;-82
2021/11/27 03:12:50;;;;;;;18.70;7.30;;;1.70;97.30;;;;;;5059362;28;20234;-81
2021/11/27 03:15:18;;;;;;;17.03;7.30;;;1.70;97.30;;;;;;5058104;28;20183;-81
2021/11/27 03:17:44;;;;;;;17.23;6.47;;;1.70;97.30;;;;;;5059248;28;20505;-81
2021/11/27 03:20:12;;;;;;;16.60;6.27;;;1.70;97.30;;;;;;5058837;28;20521;-82
2021/11/27 03:22:38;;;;;;;16.77;6.83;;;1.80;97.30;;;;;;5056440;28;20498;-82
2021/11/27 03:25:05;;;;;;;16.30;7.87;;;1.80;97.30;;;;;;5056445;28;21108;-82
2021/11/27 03:27:31;;;;;;;17.67;6.13;;;1.80;97.30;;;;;;5056538;28;20415;-82
2021/11/27 03:29:57;;;;;;;18.60;6.47;;;1.80;97.30;;;;;;5056600;28;20428;-82
2021/11/27 03:32:23;;;;;;;19.33;7.47;;;1.80;97.30;;;;;;5056600;28;20176;-82
2021/11/27 03:34:50;;;;;;;13.77;6.30;;;1.90;97.30;;;;;;5056576;28;20191;-83
2021/11/27 03:37:17;;;;;;;17.17;6.60;;;1.90;97.30;;;;;;5056747;28;20525;-82
2021/11/27 03:39:43;;;;;;;20.33;6.30;;;1.90;97.30;;;;;;5056433;28;20506;-81
2021/11/27 03:42:12;;;;;;;17.20;6.80;;;2.00;97.30;;;;;;5056744;28;20446;-82
2021/11/27 03:44:38;;;;;;;18.00;5.80;;;2.00;97.30;;;;;;5056250;28;20709;-82
2021/11/27 03:47:04;;;;;;;13.70;6.23;;;2.00;97.30;;;;;;5056397;28;20434;-82
2021/11/27 03:49:30;;;;;;;16.57;6.90;;;2.00;97.30;;;;;;5056661;28;21010;-82
2021/11/27 03:51:58;;;;;;;17.77;7.33;;;2.10;97.30;;;;;;5057539;28;20446;-82
2021/11/27 03:54:24;;;;;;;17.93;6.70;;;2.10;97.30;;;;;;5056255;28;20176;-81
2021/11/27 03:56:50;;;;;;;13.17;5.50;;;2.10;97.30;;;;;;5056894;28;20478;-81
2021/11/27 03:59:16;;;;;;;18.00;6.57;;;2.10;97.30;;;;;;5056117;28;20437;-82
2021/11/27 04:01:42;;;;;;;16.00;5.00;;;2.10;97.30;;;;;;5056406;28;20476;-82
2021/11/27 04:04:09;;;;;;;15.50;7.33;;;2.00;97.30;;;;;;5056140;28;20180;-82
2021/11/27 04:06:36;;;;;;;13.70;6.20;;;2.00;97.30;;;;;;5055990;28;20474;-82
2021/11/27 04:09:08;;;;;;;17.30;7.07;;;2.00;97.30;;;;;;5056037;28;20446;-82
2021/11/27 04:11:36;;;;;;;13.10;5.80;;;2.00;97.30;;;;;;5055859;28;20414;-82
2021/11/27 04:14:01;;;;;;;15.80;6.27;;;2.00;97.30;;;;;;5056169;28;20418;-82
2021/11/27 04:16:27;;;;;;;16.53;5.60;;;1.90;97.30;;;;;;5056003;28;20795;-82
2021/11/27 04:18:53;;;;;;;13.83;5.50;;;1.90;97.30;;;;;;5054743;28;20255;-80
2021/11/27 04:21:19;;;;;;;14.13;5.97;;;1.90;97.30;;;;;;5055187;28;20445;-81
2021/11/27 04:23:47;;;;;;;14.37;5.60;;;1.90;97.30;;;;;;5055466;28;20363;-82
2021/11/27 04:26:13;;;;;;;15.90;6.27;;;1.90;97.30;;;;;;5055476;28;20470;-82
2021/11/27 04:28:40;;;;;;;12.20;5.20;;;1.90;97.30;;;;;;5055928;28;20407;-82
2021/11/27 04:31:05;;;;;;;15.60;6.13;;;1.90;97.30;;;;;;5055514;28;20509;-81
2021/11/27 04:33:31;;;;;;;10.67;5.57;;;1.90;97.30;;;;;;5055619;28;20446;-81
2021/11/27 04:35:57;;;;;;;18.80;7.13;;;1.90;97.30;;;;;;5055371;28;20691;-81
2021/11/27 04:38:23;;;;;;;17.37;6.40;;;2.00;97.30;;;;;;5057006;28;20414;-81
2021/11/27 04:40:51;;;;;;;16.00;7.17;;;2.00;97.30;;;;;;5056095;28;20266;-82
2021/11/27 04:43:17;;;;;;;19.70;6.70;;;2.00;97.30;;;;;;5055030;28;20446;-82
2021/11/27 04:45:44;;;;;;;13.33;5.27;;;2.00;97.30;;;;;;5055756;28;20524;-81
2021/11/27 04:48:10;;;;;;;13.23;6.50;;;1.90;97.30;;;;;;5055764;28;21213;-82
2021/11/27 04:50:37;;;;;;;11.83;5.30;;;2.00;97.30;;;;;;5056998;28;20789;-81
2021/11/27 04:53:03;;;;;;;19.13;6.17;;;2.00;97.30;;;;;;5055225;28;20457;-81
2021/11/27 04:55:31;;;;;;;13.30;5.70;;;2.00;97.30;;;;;;5055036;28;20439;-82
2021/11/27 04:57:57;;;;;;;15.23;6.07;;;2.00;97.30;;;;;;5055566;28;20433;-82
2021/11/27 05:00:30;;;;;;;13.30;5.37;;;2.00;97.30;;;;;;5055343;28;20418;-82
2021/11/27 05:02:56;;;;;;;15.17;6.20;;;2.00;97.30;;;;;;5055247;28;20965;-82
2021/11/27 05:05:23;;;;;;;17.70;6.27;;;2.00;97.30;;;;;;5055256;28;20545;-81
2021/11/27 05:07:49;;;;;;;15.60;5.13;;;2.10;97.30;;;;;;5055429;28;20218;-82
2021/11/27 05:10:14;;;;;;;12.40;6.43;;;2.10;97.30;;;;;;5057478;28;20807;-82
2021/11/27 05:12:40;;;;;;;15.90;5.10;;;2.10;97.30;;;;;;5056280;28;20924;-82
2021/11/27 05:15:07;;;;;;;19.33;5.80;;;2.10;97.30;;;;;;5054945;28;20306;-82
2021/11/27 05:17:33;;;;;;;17.07;6.20;;;2.10;97.30;;;;;;5055257;28;20466;-82
2021/11/27 05:19:58;;;;;;;14.63;6.10;;;2.10;97.30;;;;;;5055091;28;20418;-82
2021/11/27 05:22:24;;;;;;;16.13;6.20;;;2.10;97.30;;;;;;5055243;28;20283;-82
2021/11/27 05:24:50;;;;;;;11.53;5.57;;;2.10;97.30;;;;;;5055000;28;20493;-82
2021/11/27 05:27:17;;;;;;;16.47;5.30;;;2.20;97.30;;;;;;5055037;28;20673;-82
2021/11/27 05:29:43;;;;;;;13.87;5.30;;;2.20;97.30;;;;;;5056974;28;20168;-82
2021/11/27 05:32:21;;;;;;;16.13;5.63;;;2.20;97.30;;;;;;5058849;28;20441;-82
2021/11/27 05:34:47;;;;;;;14.37;5.87;;;2.20;97.30;;;;;;5059488;28;20172;-82
2021/11/27 05:37:13;;;;;;;16.33;5.90;;;2.20;97.30;;;;;;5059434;28;20441;-83
2021/11/27 05:39:41;;;;;;;20.80;7.00;;;2.20;97.30;;;;;;5059298;28;20438;-82
2021/11/27 05:42:07;;;;;;;15.73;5.80;;;2.20;97.30;;;;;;5058959;28;20172;-82
2021/11/27 05:44:33;;;;;;;19.30;6.40;;;2.20;97.30;;;;;;5059148;28;20418;-82
2021/11/27 05:46:58;;;;;;;11.80;5.67;;;2.20;97.30;;;;;;5058565;28;20555;-81
2021/11/27 05:49:24;;;;;;;13.90;6.50;;;2.20;97.30;;;;;;5059207;28;20203;-82
2021/11/27 05:51:49;;;;;;;13.50;5.97;;;2.20;97.30;;;;;;5058809;28;20167;-81
2021/11/27 05:54:15;;;;;;;20.60;5.63;;;2.30;97.30;;;;;;5058851;28;20233;-81
2021/11/27 05:56:41;;;;;;;22.73;6.00;;;2.30;97.30;;;;;;5059163;28;20222;-82
2021/11/27 05:59:07;;;;;;;12.17;5.50;;;2.30;97.30;;;;;;5058867;28;20418;-82
2021/11/27 06:01:33;;;;;;;13.30;5.57;;;2.40;97.30;;;;;;5058705;28;20209;-82
2021/11/27 06:03:58;;;;;;;16.10;5.00;;;2.40;97.30;;;;;;5058709;28;20271;-81
2021/11/27 06:06:24;;;;;;;15.40;6.07;;;2.40;97.30;;;;;;5058478;28;20230;-82
2021/11/27 06:08:49;;;;;;;16.80;7.33;;;2.50;97.30;;;;;;5059855;28;20190;-82
2021/11/27 06:11:15;;;;;;;12.47;5.77;;;2.50;97.30;;;;;;5058496;28;20168;-82
2021/11/27 06:13:40;;;;;;;19.53;6.70;;;2.60;97.30;;;;;;5058432;28;20168;-81
2021/11/27 06:16:09;;;;;;;18.67;6.77;;;2.60;97.30;;;;;;5042813;28;20670;-83
2021/11/27 06:18:36;;;;;;;15.23;5.73;;;2.60;97.30;;;;;;5041000;28;20184;-82
2021/11/27 06:21:03;;;;;;;22.10;7.60;;;2.60;97.30;;;;;;5052583;28;20448;-82
2021/11/27 06:23:29;;;;;;;16.10;5.90;;;2.60;97.30;;;;;;5059067;28;20492;-82
2021/11/27 06:25:56;;;;;;;17.53;6.60;;;2.70;97.30;;;;;;5058256;28;21025;-82
2021/11/27 06:28:22;;;;;;;21.17;7.60;;;2.70;97.30;;;;;;5058927;28;20419;-82
2021/11/27 06:30:48;;;;;;;12.67;6.47;;;2.70;97.30;;;;;;5051076;28;20418;-82
2021/11/27 06:33:14;;;;;;;15.33;5.83;;;2.70;97.30;;;;;;5055574;28;20426;-82
2021/11/27 06:35:39;;;;;;;15.13;6.50;;;2.80;97.30;;;;;;5058948;28;20446;-83
2021/11/27 06:38:05;;;;;;;23.50;8.50;;;2.80;97.30;;;;;;5057807;28;20184;-82
2021/11/27 06:40:31;;;;;;;18.47;6.60;;;2.80;97.30;;;;;;5054921;28;20234;-81
2021/11/27 06:43:01;;;;;;;16.40;7.10;;;2.80;97.30;;;;;;5057449;28;20222;-82
2021/11/27 06:45:27;;;;;;;19.33;6.80;;;2.90;97.30;;;;;;5039346;28;20482;-82
2021/11/27 06:47:52;;;;;;;15.30;6.83;;;2.90;97.30;;;;;;5041614;28;20905;-81
2021/11/27 06:50:18;;;;;;;13.37;6.07;;;2.90;97.30;;;;;;5038778;28;20430;-81
2021/11/27 06:52:44;;;;;;;18.53;7.57;;;2.90;97.30;;;;;;5046835;28;20949;-83
2021/11/27 06:55:09;;;;;;;17.90;5.87;;;3.00;97.30;;;;;;5044276;28;20179;-82
2021/11/27 06:57:35;;;;;;;19.60;7.10;;;3.00;97.30;;;;;;5050230;28;20210;-82
2021/11/27 07:00:02;;;;;;;20.27;7.00;;;3.00;97.30;;;;;;5040127;28;20242;-82
2021/11/27 07:02:27;;;;;;;16.10;7.30;;;3.00;97.30;;;;;;5041049;28;20310;-81
2021/11/27 07:04:53;;;;;;;15.00;5.73;;;3.00;97.30;;;;;;5055299;28;20446;-82
2021/11/27 07:07:18;;;;;;;16.90;6.27;;;3.10;97.30;;;;;;5051420;28;20192;-85
2021/11/27 07:09:44;;;;;;;17.87;6.90;;;3.10;97.30;;;;;;5055636;28;20176;-85
2021/11/27 07:12:10;;;;;;;20.37;7.13;;;3.10;97.30;;;;;;5055695;28;20179;-85
2021/11/27 07:14:35;;;;;;;27.13;8.07;;;3.10;97.30;;;;;;5055202;28;20931;-85
2021/11/27 07:17:01;;;;;;;21.30;7.63;;;3.10;97.30;;;;;;5056642;28;20827;-85
2021/11/27 07:19:27;;;;;;;20.83;5.97;;;3.10;97.30;;;;;;5055606;28;20282;-84
2021/11/27 07:21:52;;;;;;;19.17;7.20;;;3.10;97.30;;;;;;5054927;28;20229;-84
2021/11/27 07:24:19;;;;;;;19.00;7.30;;;3.10;97.30;;;;;;5055415;28;20194;-85
2021/11/27 07:26:45;;;;;;;16.77;7.30;;;3.20;97.30;;;;;;5055090;28;20289;-85
2021/11/27 07:29:10;;;;;;;16.73;7.43;;;3.20;97.30;;;;;;5056765;28;20411;-85
2021/11/27 07:31:36;;;;;;;17.27;7.80;;;3.20;97.30;;;;;;5055015;28;20184;-85
2021/11/27 07:34:02;;;;;;;18.97;7.90;;;3.30;97.30;;;;;;5055660;28;20628;-85
2021/11/27 07:36:29;;;;;;;20.30;8.30;;;3.30;97.30;;;;;;5055324;28;20495;-84
2021/11/27 07:38:54;;;;;;;24.20;7.83;;;3.30;97.30;;;;;;5056043;28;20226;-84
2021/11/27 07:41:20;;;;;;;14.37;6.63;;;3.30;97.30;;;;;;5055269;28;20430;-85
2021/11/27 07:43:46;;;;;;;27.67;8.43;;;3.30;97.30;;;;;;5054995;28;20187;-85
2021/11/27 07:46:12;;;;;;;18.10;7.53;;;3.30;97.30;;;;;;5054648;28;20212;-85
2021/11/27 07:48:39;;;;;;;16.83;7.03;;;3.40;97.30;;;;;;5054955;28;20179;-84
2021/11/27 07:51:05;;;;;;;22.67;7.13;;;3.40;97.30;;;;;;5054951;28;20917;-85
2021/11/27 07:53:31;;;;;;;17.20;7.83;;;3.40;97.30;;;;;;5055024;28;20975;-84
2021/11/27 07:55:56;;;;;;;18.83;8.10;;;3.40;97.30;;;;;;5054663;28;20485;-85
2021/11/27 07:58:22;;;;;;;16.40;6.70;;;3.50;97.30;;;;;;5054856;28;20184;-85
2021/11/27 08:00:48;;;;;;;22.57;7.87;;;3.50;97.30;;;;;;5054004;28;20188;-85
2021/11/27 08:03:14;;;;;;;16.80;7.83;;;3.50;97.30;;;;;;5054722;28;20180;-85
2021/11/27 08:05:39;;;;;;;20.53;8.67;;;3.50;97.30;;;;;;5054613;28;20246;-84
2021/11/27 08:08:05;;;;;;;20.20;7.77;;;3.60;97.30;;;;;;5055123;28;20461;-84
2021/11/27 08:10:31;;;;;;;21.47;7.80;;;3.60;97.30;;;;;;5054564;28;20180;-84
2021/11/27 08:12:57;;;;;;;17.57;7.17;;;3.70;97.30;;;;;;5054513;28;20180;-84
2021/11/27 08:15:23;;;;;;;22.33;10.20;;;3.70;97.30;;;;;;5054119;28;20218;-84
2021/11/27 08:17:48;;;;;;;19.40;8.07;;;3.70;97.30;;;;;;5054092;28;20422;-85
2021/11/27 08:20:14;;;;;;;17.40;7.60;;;3.80;97.30;;;;;;5053661;28;20418;-85
2021/11/27 08:22:40;;;;;;;19.83;7.80;;;3.80;97.30;;;;;;5045359;28;20265;-85
2021/11/27 08:25:06;;;;;;;25.10;8.87;;;3.90;97.30;;;;;;5033208;28;20207;-84
2021/11/27 08:27:33;;;;;;;20.83;7.77;;;3.90;97.30;;;;;;5033510;28;20943;-85
2021/11/27 08:30:01;;;;;;;19.10;8.40;;;3.90;97.30;;;;;;5033286;28;20415;-84
2021/11/27 08:32:27;;;;;;;20.97;8.73;;;3.90;97.30;;;;;;5033108;28;20419;-85
2021/11/27 08:34:52;;;;;;;18.87;8.13;;;4.00;97.30;;;;;;5033561;28;20782;-85
2021/11/27 08:37:18;;;;;;;17.97;8.50;;;4.00;97.30;;;;;;5033294;28;20716;-85
2021/11/27 08:39:43;;;;;;;19.17;8.27;;;4.00;97.30;;;;;;5033263;28;20263;-85
2021/11/27 08:42:09;;;;;;;18.00;8.83;;;4.00;97.30;;;;;;5033305;28;20199;-85
2021/11/27 08:44:34;;;;;;;20.13;8.00;;;4.10;97.30;;;;;;5033180;28;20176;-85
2021/11/27 08:47:00;;;;;;;18.70;8.00;;;4.10;97.30;;;;;;5034181;28;20311;-84
2021/11/27 08:49:26;;;;;;;22.03;8.77;;;4.20;97.30;;;;;;5033176;28;20180;-84
2021/11/27 08:51:51;;;;;;;27.20;9.93;;;4.20;97.30;;;;;;5032953;28;20177;-85
2021/11/27 08:54:17;;;;;;;26.90;8.67;;;4.30;97.30;;;;;;5034308;28;20177;-85
2021/11/27 08:56:43;;;;;;;17.87;7.47;;;4.30;97.30;;;;;;5034149;28;20224;-84
2021/11/27 08:59:09;;;;;;;18.10;6.80;;;4.30;97.30;;;;;;5033104;28;20187;-85
2021/11/27 09:01:35;;;;;;;21.10;8.97;;;4.30;97.30;;;;;;5032802;28;20789;-83
2021/11/27 09:04:00;;;;;;;21.37;8.77;;;4.30;97.30;;;;;;5032902;28;20418;-82
2021/11/27 09:06:26;;;;;;;24.00;9.20;;;4.40;97.30;;;;;;5036225;28;20219;-83
2021/11/27 09:08:53;;;;;;;19.13;8.33;;;4.40;97.30;;;;;;5037816;28;20230;-83
2021/11/27 09:11:20;;;;;;;20.80;9.30;;;4.40;97.30;;;;;;5037618;28;20936;-83
2021/11/27 09:13:46;;;;;;;21.90;8.47;;;4.40;97.30;;;;;;5036883;28;20490;-84
2021/11/27 09:16:12;;;;;;;18.50;7.73;;;4.40;97.30;;;;;;5036793;28;20442;-83
2021/11/27 09:18:38;;;;;;;24.70;8.30;;;4.40;97.30;;;;;;5036880;28;20430;-84
2021/11/27 09:21:03;;;;;;;23.07;9.13;;;4.50;97.30;;;;;;5036917;28;20184;-83
2021/11/27 09:23:29;;;;;;;20.80;8.80;;;4.50;97.30;;;;;;5036467;28;20740;-83
2021/11/27 09:25:55;;;;;;;18.87;9.63;;;4.50;97.30;;;;;;5036376;28;20712;-83
2021/11/27 09:28:21;;;;;;;16.43;7.37;;;4.50;97.30;;;;;;5037032;28;20165;-84
2021/11/27 09:30:47;;;;;;;16.70;7.63;;;4.50;97.30;;;;;;5038056;28;20418;-84
2021/11/27 09:33:13;;;;;;;16.50;7.33;;;4.50;97.30;;;;;;5036510;28;20176;-84
2021/11/27 09:35:38;;;;;;;20.20;7.20;;;4.60;97.30;;;;;;5036574;28;20200;-84
2021/11/27 09:38:04;;;;;;;18.87;7.70;;;4.60;97.30;;;;;;5036602;28;20177;-81
2021/11/27 09:40:38;;;;;;;19.93;8.40;;;4.60;97.30;;;;;;5036989;28;20183;-83
2021/11/27 09:43:05;;;;;;;15.30;7.20;;;4.70;97.30;;;;;;5036329;28;20176;-83
2021/11/27 09:45:33;;;;;;;20.10;7.40;;;4.80;97.30;;;;;;5036067;28;20467;-82
2021/11/27 09:47:59;;;;;;;19.20;7.70;;;4.90;97.30;;;;;;5036297;28;20406;-84
2021/11/27 09:50:25;;;;;;;20.33;7.73;;;4.90;97.30;;;;;;5036702;28;20411;-84
2021/11/27 09:52:51;;;;;;;19.90;8.53;;;4.90;97.30;;;;;;5036249;28;20510;-83
2021/11/27 09:55:19;;;;;;;15.37;8.43;;;5.00;97.30;;;;;;5036574;28;20183;-83
2021/11/27 09:57:47;;;;;;;21.17;8.97;;;5.00;97.30;;;;;;5035950;28;20411;-83
2021/11/27 10:00:14;;;;;;;21.67;8.70;;;5.10;97.30;;;;;;5036333;28;20861;-82
2021/11/27 10:02:42;;;;;;;18.07;7.07;;;5.10;97.30;;;;;;5036177;28;20480;-85
2021/11/27 10:05:10;;;;;;;18.40;7.13;;;5.20;97.30;;;;;;5035819;28;21017;-84
2021/11/27 10:07:37;;;;;;;19.77;8.30;;;5.20;97.30;;;;;;5035813;28;20449;-84
2021/11/27 10:10:03;;;;;;;17.17;7.70;;;5.30;97.30;;;;;;5035975;28;20407;-84
2021/11/27 10:12:29;;;;;;;15.70;7.37;;;5.40;97.30;;;;;;5035512;28;20411;-84
2021/11/27 10:14:54;;;;;;;15.30;7.50;;;5.50;97.30;;;;;;5035517;28;20449;-84
2021/11/27 10:17:21;;;;;;;16.27;7.87;;;5.60;97.30;;;;;;5035340;28;20215;-83
2021/11/27 10:19:54;;;;;;;19.13;7.87;;;5.60;97.30;;;;;;5035293;28;20184;-82
2021/11/27 10:22:22;;;;;;;15.70;7.50;;;5.60;97.30;;;;;;5035856;28;20470;-82
2021/11/27 10:24:50;;;;;;;18.30;7.40;;;5.70;97.30;;;;;;5035697;28;20446;-85
2021/11/27 10:27:30;;;;;;;15.87;7.47;;;5.70;97.30;;;;;;5036707;28;20431;-84
2021/11/27 10:29:58;;;;;;;17.90;7.90;;;5.70;97.30;;;;;;5036867;28;20411;-84
2021/11/27 10:32:30;;;;;;;19.67;7.77;;;5.70;97.30;;;;;;5035498;28;20419;-84
2021/11/27 10:34:56;;;;;;;15.43;7.80;;;5.70;97.30;;;;;;5035545;28;20471;-84
2021/11/27 10:37:29;;;;;;;14.87;6.87;;;5.70;97.30;;;;;;5035787;28;20466;-83
2021/11/27 10:40:05;;;;;;;16.23;6.00;;;5.70;97.30;;;;;;5035510;28;20499;-84
2021/11/27 10:42:32;;;;;;;16.63;6.77;;;5.70;97.30;;;;;;5035756;28;20473;-84
2021/11/27 10:45:14;;;;;;;18.40;7.90;;;5.70;97.30;;;;;;5035236;28;20426;-84
2021/11/27 10:47:42;;;;;;;16.07;7.20;;;5.60;97.30;;;;;;5036282;28;20839;-84
2021/11/27 10:50:10;;;;;;;21.50;8.50;;;5.60;97.30;;;;;;5055167;28;20422;-84
2021/11/27 10:52:38;;;;;;;16.37;7.00;;;5.60;97.30;;;;;;5054994;28;20414;-84
2021/11/27 10:55:26;;;;;;;16.40;7.43;;;5.60;97.30;;;;;;5056408;28;20418;-84
2021/11/27 10:57:55;;;;;;;15.07;6.13;;;5.60;97.30;;;;;;5055098;28;20407;-84
2021/11/27 11:00:35;;;;;;;14.90;6.70;;;5.70;97.30;;;;;;5054578;28;20422;-84
2021/11/27 11:03:02;;;;;;;15.33;7.30;;;5.70;97.30;;;;;;5056034;28;21050;-84
2021/11/27 11:05:34;;;;;;;12.23;6.60;;;5.70;97.30;;;;;;5055306;28;20549;-84
2021/11/27 11:08:00;;;;;;;14.67;7.77;;;5.80;97.30;;;;;;5055278;28;20415;-84
2021/11/27 11:10:34;;;;;;;13.87;7.07;;;5.70;97.30;;;;;;5055441;28;20440;-84
2021/11/27 11:13:11;;;;;;;16.90;6.33;;;5.80;97.30;;;;;;5055631;28;20908;-84
2021/11/27 11:15:41;;;;;;;13.20;6.30;;;5.70;97.30;;;;;;5054737;28;20994;-85
2021/11/27 11:18:19;;;;;;;11.17;5.60;;;5.70;97.30;;;;;;5055362;28;20811;-84
2021/11/27 11:20:59;;;;;;;16.47;6.87;;;5.70;97.30;;;;;;5055217;28;20920;-85
2021/11/27 11:23:35;;;;;;;18.53;6.90;;;5.60;97.30;;;;;;5054544;28;20474;-84
2021/11/27 11:26:11;;;;;;;12.67;6.80;;;5.60;97.30;;;;;;5054696;28;20564;-84
2021/11/27 11:28:40;;;;;;;12.90;5.93;;;5.60;97.30;;;;;;5053922;28;20437;-84
2021/11/27 11:31:12;;;;;;;12.47;6.20;;;5.60;97.30;;;;;;5054530;28;20411;-84
2021/11/27 11:33:43;;;;;;;13.40;6.07;;;5.60;97.30;;;;;;5055088;28;20418;-84
2021/11/27 11:36:13;;;;;;;14.43;6.37;;;5.60;97.30;;;;;;5054454;28;20931;-83
2021/11/27 11:38:41;;;;;;;13.87;7.03;;;5.70;97.30;;;;;;5054759;28;20806;-85
2021/11/27 11:41:09;;;;;;;15.80;6.60;;;5.70;97.30;;;;;;5054355;28;20469;-84
2021/11/27 11:43:34;;;;;;;15.70;6.10;;;5.60;97.30;;;;;;5054692;28;20419;-85
2021/11/27 11:46:02;;;;;;;15.07;6.40;;;5.60;97.30;;;;;;5053897;28;20518;-84
2021/11/27 11:48:29;;;;;;;10.37;5.87;;;5.60;97.30;;;;;;5054792;28;20179;-85
2021/11/27 11:51:04;;;;;;;15.77;6.40;;;5.50;97.30;;;;;;5054603;28;20429;-83
2021/11/27 11:53:52;;;;;;;14.87;6.63;;;5.40;97.30;;;;;;5054588;28;20412;-83
2021/11/27 11:56:19;;;;;;;11.40;5.47;;;5.40;97.30;;;;;;5054347;28;20500;-81
2021/11/27 11:58:47;;;;;;;15.20;6.90;;;5.30;97.30;;;;;;5055448;28;20410;-84
2021/11/27 12:01:26;;;;;;;15.10;6.70;;;5.20;97.30;;;;;;5054180;28;20490;-84
2021/11/27 12:03:53;;;;;;;16.20;7.30;;;5.10;97.30;;;;;;5053563;28;20426;-82
2021/11/27 12:06:21;;;;;;;18.83;7.23;;;5.10;97.30;;;;;;5053533;28;20470;-83
2021/11/27 12:08:51;;;;;;;11.50;5.70;;;5.00;97.30;;;;;;5053520;28;20831;-83
2021/11/27 12:11:45;;;;;;;15.23;6.40;;;4.90;97.30;;;;;;5054007;28;20426;-83
2021/11/27 12:14:23;;;;;;;10.63;5.50;;;4.80;97.30;;;;;;5055251;28;20429;-83
2021/11/27 12:17:14;;;;;;;11.80;6.33;;;4.70;97.30;;;;;;5053857;28;20434;-83
2021/11/27 12:19:46;;;;;;;11.57;5.90;;;4.60;97.30;;;;;;5053942;28;20446;-81
2021/11/27 12:22:23;;;;;;;14.60;6.33;;;4.50;97.30;;;;;;5053156;28;20474;-82
2021/11/27 12:25:19;;;;;;;16.53;6.53;;;4.50;97.30;;;;;;5053592;28;20414;-82
2021/11/27 12:28:03;;;;;;;12.80;5.50;;;4.40;97.30;;;;;;5053500;28;20454;-82
2021/11/27 12:30:44;;;;;;;17.77;6.00;;;4.40;97.30;;;;;;5053566;28;20935;-82
2021/11/27 12:33:44;;;;;;;15.73;6.10;;;4.40;97.30;;;;;;5053162;28;20420;-83
2021/11/27 12:36:25;;;;;;;12.13;5.77;;;4.40;97.30;;;;;;5053001;28;21195;-82
2021/11/27 12:39:06;;;;;;;12.57;6.73;;;4.40;97.30;;;;;;5052878;28;20402;-83
2021/11/27 12:41:35;;;;;;;12.77;6.23;;;4.40;97.30;;;;;;5054519;28;20896;-83
2021/11/27 12:44:16;;;;;;;15.63;6.13;;;4.50;97.30;;;;;;5053135;28;20410;-83
2021/11/27 12:46:46;;;;;;;12.80;6.23;;;4.50;97.30;;;;;;5053531;28;20844;-83
2021/11/27 12:49:31;;;;;;;15.17;5.83;;;4.50;97.30;;;;;;5053200;28;20417;-84